sensor_id;sensor_type;location;lat;lon;timestamp;P1;durP1;ratioP1;P2;durP2;ratioP2
76433;SDS011;65265;53.200;6.080;2022-12-18T00:00:44;46.50;;;16.20;;
76433;SDS011;65265;53.200;6.080;2022-12-18T00:05:45;51.63;;;18.58;;
76433;SDS011;65265;53.200;6.080;2022-12-18T00:10:37;48.92;;;20.10;;
76433;SDS011;65265;53.200;6.080;2022-12-18T00:15:29;48.78;;;18.92;;
76433;SDS011;65265;53.200;6.080;2022-12-18T00:20:20;53.95;;;16.80;;
76433;SDS011;65265;53.200;6.080;2022-12-18T00:25:17;48.83;;;19.83;;
76433;SDS011;65265;53.200;6.080;2022-12-18T00:30:10;41.60;;;17.67;;
76433;SDS011;65265;53.200;6.080;2022-12-18T00:35:02;47.40;;;19.15;;
76433;SDS011;65265;53.200;6.080;2022-12-18T00:39:54;46.85;;;18.20;;
76433;SDS011;65265;53.200;6.080;2022-12-18T00:44:47;41.00;;;15.02;;
76433;SDS011;65265;53.200;6.080;2022-12-18T00:49:39;53.17;;;18.98;;
76433;SDS011;65265;53.200;6.080;2022-12-18T00:54:31;57.97;;;17.75;;
76433;SDS011;65265;53.200;6.080;2022-12-18T00:59:22;58.13;;;19.60;;
76433;SDS011;65265;53.200;6.080;2022-12-18T01:04:15;58.10;;;18.17;;
76433;SDS011;65265;53.200;6.080;2022-12-18T01:09:06;44.95;;;16.38;;
76433;SDS011;65265;53.200;6.080;2022-12-18T01:13:59;48.22;;;16.75;;
76433;SDS011;65265;53.200;6.080;2022-12-18T01:18:52;55.75;;;22.40;;
76433;SDS011;65265;53.200;6.080;2022-12-18T01:23:46;57.92;;;20.77;;
76433;SDS011;65265;53.200;6.080;2022-12-18T01:28:37;57.03;;;18.75;;
76433;SDS011;65265;53.200;6.080;2022-12-18T01:33:29;45.30;;;17.00;;
76433;SDS011;65265;53.200;6.080;2022-12-18T01:38:21;45.22;;;16.25;;
76433;SDS011;65265;53.200;6.080;2022-12-18T01:43:15;46.72;;;18.63;;
76433;SDS011;65265;53.200;6.080;2022-12-18T01:48:06;45.95;;;17.27;;
76433;SDS011;65265;53.200;6.080;2022-12-18T01:53:00;47.53;;;17.42;;
76433;SDS011;65265;53.200;6.080;2022-12-18T01:57:56;42.50;;;14.52;;
76433;SDS011;65265;53.200;6.080;2022-12-18T02:07:45;33.60;;;13.05;;
76433;SDS011;65265;53.200;6.080;2022-12-18T02:12:48;49.47;;;17.60;;
76433;SDS011;65265;53.200;6.080;2022-12-18T02:17:43;44.22;;;15.80;;
76433;SDS011;65265;53.200;6.080;2022-12-18T02:22:44;38.47;;;12.20;;
76433;SDS011;65265;53.200;6.080;2022-12-18T02:27:52;43.25;;;13.57;;
76433;SDS011;65265;53.200;6.080;2022-12-18T02:32:47;32.90;;;13.25;;
76433;SDS011;65265;53.200;6.080;2022-12-18T02:37:42;48.67;;;17.52;;
76433;SDS011;65265;53.200;6.080;2022-12-18T02:42:36;38.08;;;14.05;;
76433;SDS011;65265;53.200;6.080;2022-12-18T02:47:36;45.70;;;16.58;;
76433;SDS011;65265;53.200;6.080;2022-12-18T02:52:31;42.67;;;17.20;;
76433;SDS011;65265;53.200;6.080;2022-12-18T02:57:30;44.50;;;16.02;;
76433;SDS011;65265;53.200;6.080;2022-12-18T03:02:26;47.72;;;18.67;;
76433;SDS011;65265;53.200;6.080;2022-12-18T03:07:28;40.40;;;17.30;;
76433;SDS011;65265;53.200;6.080;2022-12-18T03:12:28;39.50;;;13.00;;
76433;SDS011;65265;53.200;6.080;2022-12-18T03:17:22;45.95;;;16.33;;
76433;SDS011;65265;53.200;6.080;2022-12-18T03:22:19;39.45;;;17.48;;
76433;SDS011;65265;53.200;6.080;2022-12-18T03:27:14;44.13;;;15.02;;
76433;SDS011;65265;53.200;6.080;2022-12-18T03:32:09;35.97;;;14.85;;
76433;SDS011;65265;53.200;6.080;2022-12-18T03:37:03;35.90;;;14.55;;
76433;SDS011;65265;53.200;6.080;2022-12-18T03:41:58;36.03;;;13.57;;
76433;SDS011;65265;53.200;6.080;2022-12-18T03:46:55;37.15;;;14.75;;
76433;SDS011;65265;53.200;6.080;2022-12-18T03:51:54;46.33;;;17.58;;
76433;SDS011;65265;53.200;6.080;2022-12-18T03:56:53;48.53;;;16.58;;
76433;SDS011;65265;53.200;6.080;2022-12-18T04:01:49;33.95;;;11.88;;
76433;SDS011;65265;53.200;6.080;2022-12-18T04:06:45;45.08;;;16.95;;
76433;SDS011;65265;53.200;6.080;2022-12-18T04:11:39;45.25;;;16.48;;
76433;SDS011;65265;53.200;6.080;2022-12-18T04:16:31;33.17;;;13.00;;
76433;SDS011;65265;53.200;6.080;2022-12-18T04:21:24;44.80;;;17.85;;
76433;SDS011;65265;53.200;6.080;2022-12-18T04:26:15;44.80;;;18.40;;
76433;SDS011;65265;53.200;6.080;2022-12-18T04:31:07;39.05;;;16.08;;
76433;SDS011;65265;53.200;6.080;2022-12-18T04:35:58;49.65;;;19.08;;
76433;SDS011;65265;53.200;6.080;2022-12-18T04:40:52;41.38;;;16.67;;
76433;SDS011;65265;53.200;6.080;2022-12-18T04:45:43;45.95;;;14.65;;
76433;SDS011;65265;53.200;6.080;2022-12-18T04:50:35;48.78;;;16.52;;
76433;SDS011;65265;53.200;6.080;2022-12-18T04:55:27;42.80;;;16.00;;
76433;SDS011;65265;53.200;6.080;2022-12-18T05:00:20;39.47;;;13.13;;
76433;SDS011;65265;53.200;6.080;2022-12-18T05:05:12;44.78;;;16.92;;
76433;SDS011;65265;53.200;6.080;2022-12-18T05:10:04;41.05;;;14.80;;
76433;SDS011;65265;53.200;6.080;2022-12-18T05:14:56;38.17;;;13.35;;
76433;SDS011;65265;53.200;6.080;2022-12-18T05:19:50;46.95;;;16.92;;
76433;SDS011;65265;53.200;6.080;2022-12-18T05:24:41;35.85;;;13.07;;
76433;SDS011;65265;53.200;6.080;2022-12-18T05:29:33;27.33;;;11.48;;
76433;SDS011;65265;53.200;6.080;2022-12-18T05:34:24;35.35;;;13.82;;
76433;SDS011;65265;53.200;6.080;2022-12-18T05:39:18;43.75;;;16.08;;
76433;SDS011;65265;53.200;6.080;2022-12-18T05:44:09;33.78;;;14.90;;
76433;SDS011;65265;53.200;6.080;2022-12-18T05:49:01;35.63;;;14.55;;
76433;SDS011;65265;53.200;6.080;2022-12-18T05:53:53;37.75;;;15.13;;
76433;SDS011;65265;53.200;6.080;2022-12-18T05:58:46;31.33;;;12.05;;
76433;SDS011;65265;53.200;6.080;2022-12-18T06:03:38;28.63;;;13.07;;
76433;SDS011;65265;53.200;6.080;2022-12-18T06:08:30;32.47;;;13.23;;
76433;SDS011;65265;53.200;6.080;2022-12-18T06:13:22;31.25;;;15.82;;
76433;SDS011;65265;53.200;6.080;2022-12-18T06:18:15;33.80;;;13.43;;
76433;SDS011;65265;53.200;6.080;2022-12-18T06:23:06;29.67;;;11.48;;
76433;SDS011;65265;53.200;6.080;2022-12-18T06:27:58;30.17;;;9.85;;
76433;SDS011;65265;53.200;6.080;2022-12-18T06:32:50;31.23;;;12.68;;
76433;SDS011;65265;53.200;6.080;2022-12-18T06:37:43;29.58;;;10.70;;
76433;SDS011;65265;53.200;6.080;2022-12-18T06:42:35;29.63;;;13.27;;
76433;SDS011;65265;53.200;6.080;2022-12-18T06:47:27;22.52;;;9.55;;
76433;SDS011;65265;53.200;6.080;2022-12-18T06:52:19;29.02;;;11.73;;
76433;SDS011;65265;53.200;6.080;2022-12-18T06:57:11;29.45;;;10.88;;
76433;SDS011;65265;53.200;6.080;2022-12-18T07:02:03;23.50;;;9.80;;
76433;SDS011;65265;53.200;6.080;2022-12-18T07:06:55;36.10;;;13.10;;
76433;SDS011;65265;53.200;6.080;2022-12-18T07:11:47;20.45;;;8.82;;
76433;SDS011;65265;53.200;6.080;2022-12-18T07:16:40;27.10;;;10.95;;
76433;SDS011;65265;53.200;6.080;2022-12-18T07:21:31;27.02;;;9.80;;
76433;SDS011;65265;53.200;6.080;2022-12-18T07:26:23;20.35;;;8.40;;
76433;SDS011;65265;53.200;6.080;2022-12-18T07:31:17;29.33;;;11.30;;
76433;SDS011;65265;53.200;6.080;2022-12-18T07:36:11;20.10;;;11.00;;
76433;SDS011;65265;53.200;6.080;2022-12-18T07:41:03;26.90;;;10.88;;
76433;SDS011;65265;53.200;6.080;2022-12-18T07:45:56;22.52;;;10.20;;
76433;SDS011;65265;53.200;6.080;2022-12-18T07:50:48;25.85;;;10.38;;
76433;SDS011;65265;53.200;6.080;2022-12-18T07:55:42;27.65;;;12.00;;
76433;SDS011;65265;53.200;6.080;2022-12-18T08:00:33;26.05;;;12.40;;
76433;SDS011;65265;53.200;6.080;2022-12-18T08:05:25;25.50;;;11.65;;
76433;SDS011;65265;53.200;6.080;2022-12-18T08:10:17;25.10;;;10.90;;
76433;SDS011;65265;53.200;6.080;2022-12-18T08:15:11;19.42;;;9.80;;
76433;SDS011;65265;53.200;6.080;2022-12-18T08:20:02;22.50;;;10.70;;
76433;SDS011;65265;53.200;6.080;2022-12-18T08:24:54;22.23;;;10.52;;
76433;SDS011;65265;53.200;6.080;2022-12-18T08:29:45;17.70;;;9.65;;
76433;SDS011;65265;53.200;6.080;2022-12-18T08:34:39;15.65;;;7.43;;
76433;SDS011;65265;53.200;6.080;2022-12-18T08:39:30;16.38;;;8.45;;
76433;SDS011;65265;53.200;6.080;2022-12-18T08:44:21;19.13;;;7.80;;
76433;SDS011;65265;53.200;6.080;2022-12-18T08:49:28;23.92;;;10.13;;
76433;SDS011;65265;53.200;6.080;2022-12-18T08:54:22;14.45;;;8.05;;
76433;SDS011;65265;53.200;6.080;2022-12-18T08:59:14;23.13;;;9.52;;
76433;SDS011;65265;53.200;6.080;2022-12-18T09:04:07;23.08;;;10.88;;
76433;SDS011;65265;53.200;6.080;2022-12-18T09:08:59;20.27;;;9.48;;
76433;SDS011;65265;53.200;6.080;2022-12-18T09:13:52;15.93;;;7.95;;
76433;SDS011;65265;53.200;6.080;2022-12-18T09:18:44;19.05;;;10.43;;
76433;SDS011;65265;53.200;6.080;2022-12-18T09:23:36;18.92;;;7.60;;
76433;SDS011;65265;53.200;6.080;2022-12-18T09:28:28;16.27;;;8.75;;
76433;SDS011;65265;53.200;6.080;2022-12-18T09:33:21;15.25;;;7.60;;
76433;SDS011;65265;53.200;6.080;2022-12-18T09:38:13;16.65;;;7.60;;
76433;SDS011;65265;53.200;6.080;2022-12-18T09:43:06;17.65;;;8.02;;
76433;SDS011;65265;53.200;6.080;2022-12-18T09:48:04;15.85;;;7.85;;
76433;SDS011;65265;53.200;6.080;2022-12-18T09:52:59;12.45;;;7.95;;
76433;SDS011;65265;53.200;6.080;2022-12-18T09:57:56;16.42;;;8.05;;
76433;SDS011;65265;53.200;6.080;2022-12-18T10:02:51;12.85;;;6.57;;
76433;SDS011;65265;53.200;6.080;2022-12-18T10:07:53;11.77;;;5.72;;
76433;SDS011;65265;53.200;6.080;2022-12-18T10:12:54;15.18;;;7.15;;
76433;SDS011;65265;53.200;6.080;2022-12-18T10:17:51;13.13;;;6.47;;
76433;SDS011;65265;53.200;6.080;2022-12-18T10:22:51;13.90;;;7.03;;
76433;SDS011;65265;53.200;6.080;2022-12-18T10:27:48;13.95;;;6.80;;
76433;SDS011;65265;53.200;6.080;2022-12-18T10:32:45;11.68;;;6.07;;
76433;SDS011;65265;53.200;6.080;2022-12-18T10:37:37;21.45;;;10.15;;
76433;SDS011;65265;53.200;6.080;2022-12-18T10:43:12;15.77;;;8.23;;
76433;SDS011;65265;53.200;6.080;2022-12-18T10:48:17;13.32;;;6.18;;
76433;SDS011;65265;53.200;6.080;2022-12-18T10:53:13;15.35;;;6.60;;
76433;SDS011;65265;53.200;6.080;2022-12-18T10:58:15;11.02;;;6.80;;
76433;SDS011;65265;53.200;6.080;2022-12-18T11:08:20;16.45;;;7.93;;
76433;SDS011;65265;53.200;6.080;2022-12-18T11:13:16;13.57;;;7.18;;
76433;SDS011;65265;53.200;6.080;2022-12-18T11:18:15;12.43;;;6.75;;
76433;SDS011;65265;53.200;6.080;2022-12-18T11:23:10;11.68;;;5.57;;
76433;SDS011;65265;53.200;6.080;2022-12-18T11:28:08;9.43;;;5.50;;
76433;SDS011;65265;53.200;6.080;2022-12-18T11:33:19;12.13;;;5.68;;
76433;SDS011;65265;53.200;6.080;2022-12-18T11:38:17;11.07;;;6.15;;
76433;SDS011;65265;53.200;6.080;2022-12-18T11:43:15;10.93;;;5.90;;
76433;SDS011;65265;53.200;6.080;2022-12-18T11:48:13;10.15;;;5.63;;
76433;SDS011;65265;53.200;6.080;2022-12-18T11:53:09;9.52;;;5.13;;
76433;SDS011;65265;53.200;6.080;2022-12-18T11:58:03;11.40;;;5.55;;
76433;SDS011;65265;53.200;6.080;2022-12-18T12:03:11;9.63;;;6.40;;
76433;SDS011;65265;53.200;6.080;2022-12-18T12:08:21;9.00;;;5.93;;
76433;SDS011;65265;53.200;6.080;2022-12-18T12:13:23;7.97;;;4.68;;
76433;SDS011;65265;53.200;6.080;2022-12-18T12:18:25;11.63;;;4.97;;
76433;SDS011;65265;53.200;6.080;2022-12-18T12:23:26;7.35;;;4.88;;
76433;SDS011;65265;53.200;6.080;2022-12-18T12:28:30;8.90;;;5.10;;
76433;SDS011;65265;53.200;6.080;2022-12-18T12:33:42;7.05;;;4.25;;
76433;SDS011;65265;53.200;6.080;2022-12-18T12:38:42;5.65;;;3.90;;
76433;SDS011;65265;53.200;6.080;2022-12-18T12:48:35;5.53;;;3.10;;
76433;SDS011;65265;53.200;6.080;2022-12-18T12:53:34;6.10;;;3.60;;
76433;SDS011;65265;53.200;6.080;2022-12-18T12:58:30;5.93;;;2.83;;
76433;SDS011;65265;53.200;6.080;2022-12-18T13:03:30;5.18;;;2.85;;
76433;SDS011;65265;53.200;6.080;2022-12-18T13:13:49;6.43;;;2.78;;
76433;SDS011;65265;53.200;6.080;2022-12-18T13:18:43;5.68;;;3.67;;
76433;SDS011;65265;53.200;6.080;2022-12-18T13:23:40;6.38;;;2.53;;
76433;SDS011;65265;53.200;6.080;2022-12-18T13:28:52;3.72;;;2.90;;
76433;SDS011;65265;53.200;6.080;2022-12-18T13:33:46;6.28;;;3.25;;
76433;SDS011;65265;53.200;6.080;2022-12-18T13:38:38;5.47;;;3.28;;
76433;SDS011;65265;53.200;6.080;2022-12-18T13:43:32;6.30;;;2.45;;
76433;SDS011;65265;53.200;6.080;2022-12-18T13:48:30;6.82;;;2.97;;
76433;SDS011;65265;53.200;6.080;2022-12-18T13:53:24;5.43;;;3.88;;
76433;SDS011;65265;53.200;6.080;2022-12-18T13:58:18;5.47;;;3.38;;
76433;SDS011;65265;53.200;6.080;2022-12-18T14:03:20;4.38;;;2.70;;
76433;SDS011;65265;53.200;6.080;2022-12-18T14:08:20;3.38;;;2.22;;
76433;SDS011;65265;53.200;6.080;2022-12-18T14:13:15;5.38;;;2.75;;
76433;SDS011;65265;53.200;6.080;2022-12-18T14:18:15;4.55;;;2.90;;
76433;SDS011;65265;53.200;6.080;2022-12-18T14:28:21;6.13;;;2.42;;
76433;SDS011;65265;53.200;6.080;2022-12-18T14:33:13;5.65;;;3.72;;
76433;SDS011;65265;53.200;6.080;2022-12-18T14:38:09;4.38;;;2.67;;
76433;SDS011;65265;53.200;6.080;2022-12-18T14:43:17;3.30;;;2.83;;
76433;SDS011;65265;53.200;6.080;2022-12-18T14:48:11;7.28;;;3.88;;
76433;SDS011;65265;53.200;6.080;2022-12-18T14:53:16;8.45;;;4.13;;
76433;SDS011;65265;53.200;6.080;2022-12-18T14:58:11;6.00;;;3.20;;
76433;SDS011;65265;53.200;6.080;2022-12-18T15:03:09;4.45;;;2.65;;
76433;SDS011;65265;53.200;6.080;2022-12-18T15:08:01;4.72;;;2.80;;
76433;SDS011;65265;53.200;6.080;2022-12-18T15:13:06;4.80;;;3.22;;
76433;SDS011;65265;53.200;6.080;2022-12-18T15:17:59;7.00;;;2.83;;
76433;SDS011;65265;53.200;6.080;2022-12-18T15:27:48;5.65;;;3.53;;
76433;SDS011;65265;53.200;6.080;2022-12-18T15:32:41;7.32;;;3.10;;
76433;SDS011;65265;53.200;6.080;2022-12-18T15:37:33;8.15;;;3.60;;
76433;SDS011;65265;53.200;6.080;2022-12-18T15:42:26;4.97;;;3.13;;
76433;SDS011;65265;53.200;6.080;2022-12-18T15:47:35;7.75;;;3.72;;
76433;SDS011;65265;53.200;6.080;2022-12-18T15:52:26;5.13;;;2.67;;
76433;SDS011;65265;53.200;6.080;2022-12-18T15:57:18;6.35;;;3.67;;
76433;SDS011;65265;53.200;6.080;2022-12-18T16:02:17;6.80;;;3.08;;
76433;SDS011;65265;53.200;6.080;2022-12-18T16:12:01;6.03;;;3.05;;
76433;SDS011;65265;53.200;6.080;2022-12-18T16:16:53;6.50;;;4.30;;
76433;SDS011;65265;53.200;6.080;2022-12-18T16:21:48;8.68;;;3.72;;
76433;SDS011;65265;53.200;6.080;2022-12-18T16:26:42;6.97;;;3.20;;
76433;SDS011;65265;53.200;6.080;2022-12-18T16:31:34;5.65;;;3.78;;
76433;SDS011;65265;53.200;6.080;2022-12-18T16:36:25;8.07;;;4.93;;
76433;SDS011;65265;53.200;6.080;2022-12-18T16:41:18;9.05;;;4.60;;
76433;SDS011;65265;53.200;6.080;2022-12-18T16:46:22;6.53;;;4.07;;
76433;SDS011;65265;53.200;6.080;2022-12-18T16:51:14;7.38;;;4.30;;
76433;SDS011;65265;53.200;6.080;2022-12-18T16:56:05;8.95;;;4.38;;
76433;SDS011;65265;53.200;6.080;2022-12-18T17:00:59;6.78;;;4.38;;
76433;SDS011;65265;53.200;6.080;2022-12-18T17:05:50;7.95;;;4.13;;
76433;SDS011;65265;53.200;6.080;2022-12-18T17:10:42;9.55;;;6.53;;
76433;SDS011;65265;53.200;6.080;2022-12-18T17:15:33;9.45;;;4.18;;
76433;SDS011;65265;53.200;6.080;2022-12-18T17:20:27;7.97;;;5.20;;
76433;SDS011;65265;53.200;6.080;2022-12-18T17:25:20;7.50;;;4.70;;
76433;SDS011;65265;53.200;6.080;2022-12-18T17:30:12;8.93;;;4.47;;
76433;SDS011;65265;53.200;6.080;2022-12-18T17:35:04;8.45;;;4.38;;
76433;SDS011;65265;53.200;6.080;2022-12-18T17:39:57;11.75;;;5.78;;
76433;SDS011;65265;53.200;6.080;2022-12-18T17:44:48;11.15;;;5.15;;
76433;SDS011;65265;53.200;6.080;2022-12-18T17:49:40;6.55;;;4.93;;
76433;SDS011;65265;53.200;6.080;2022-12-18T17:54:31;7.25;;;4.45;;
76433;SDS011;65265;53.200;6.080;2022-12-18T17:59:26;8.30;;;5.32;;
76433;SDS011;65265;53.200;6.080;2022-12-18T18:04:17;9.25;;;4.95;;
76433;SDS011;65265;53.200;6.080;2022-12-18T18:09:09;8.27;;;4.30;;
76433;SDS011;65265;53.200;6.080;2022-12-18T18:14:00;7.90;;;5.88;;
76433;SDS011;65265;53.200;6.080;2022-12-18T18:18:57;6.30;;;4.50;;
76433;SDS011;65265;53.200;6.080;2022-12-18T18:23:49;9.73;;;5.07;;
76433;SDS011;65265;53.200;6.080;2022-12-18T18:28:40;8.70;;;4.63;;
76433;SDS011;65265;53.200;6.080;2022-12-18T18:33:32;9.90;;;4.95;;
76433;SDS011;65265;53.200;6.080;2022-12-18T18:38:25;8.38;;;5.10;;
76433;SDS011;65265;53.200;6.080;2022-12-18T18:43:16;8.63;;;4.55;;
76433;SDS011;65265;53.200;6.080;2022-12-18T18:48:08;10.00;;;6.00;;
76433;SDS011;65265;53.200;6.080;2022-12-18T18:52:59;8.35;;;5.07;;
76433;SDS011;65265;53.200;6.080;2022-12-18T18:57:52;9.13;;;5.25;;
76433;SDS011;65265;53.200;6.080;2022-12-18T19:02:44;6.38;;;4.25;;
76433;SDS011;65265;53.200;6.080;2022-12-18T19:07:36;9.70;;;4.38;;
76433;SDS011;65265;53.200;6.080;2022-12-18T19:12:27;10.68;;;5.80;;
76433;SDS011;65265;53.200;6.080;2022-12-18T19:17:37;10.85;;;5.43;;
76433;SDS011;65265;53.200;6.080;2022-12-18T19:22:29;10.60;;;5.70;;
76433;SDS011;65265;53.200;6.080;2022-12-18T19:27:20;10.25;;;5.95;;
76433;SDS011;65265;53.200;6.080;2022-12-18T19:32:12;10.48;;;5.80;;
76433;SDS011;65265;53.200;6.080;2022-12-18T19:37:06;9.15;;;6.13;;
76433;SDS011;65265;53.200;6.080;2022-12-18T19:41:57;13.18;;;6.85;;
76433;SDS011;65265;53.200;6.080;2022-12-18T19:46:49;10.23;;;5.60;;
76433;SDS011;65265;53.200;6.080;2022-12-18T19:51:41;12.60;;;7.00;;
76433;SDS011;65265;53.200;6.080;2022-12-18T19:56:34;12.15;;;7.10;;
76433;SDS011;65265;53.200;6.080;2022-12-18T20:01:27;13.50;;;6.78;;
76433;SDS011;65265;53.200;6.080;2022-12-18T20:06:23;11.52;;;6.53;;
76433;SDS011;65265;53.200;6.080;2022-12-18T20:11:16;13.80;;;6.28;;
76433;SDS011;65265;53.200;6.080;2022-12-18T20:16:09;11.68;;;7.10;;
76433;SDS011;65265;53.200;6.080;2022-12-18T20:21:01;13.38;;;9.23;;
76433;SDS011;65265;53.200;6.080;2022-12-18T20:25:53;11.23;;;6.32;;
76433;SDS011;65265;53.200;6.080;2022-12-18T20:30:45;16.13;;;7.18;;
76433;SDS011;65265;53.200;6.080;2022-12-18T20:35:37;15.02;;;8.27;;
76433;SDS011;65265;53.200;6.080;2022-12-18T20:40:29;14.18;;;8.45;;
76433;SDS011;65265;53.200;6.080;2022-12-18T20:45:21;12.07;;;6.90;;
76433;SDS011;65265;53.200;6.080;2022-12-18T20:50:12;16.17;;;8.02;;
76433;SDS011;65265;53.200;6.080;2022-12-18T20:55:06;18.17;;;8.00;;
76433;SDS011;65265;53.200;6.080;2022-12-18T21:04:49;14.80;;;7.35;;
76433;SDS011;65265;53.200;6.080;2022-12-18T21:09:42;12.52;;;7.45;;
76433;SDS011;65265;53.200;6.080;2022-12-18T21:14:35;13.15;;;7.57;;
76433;SDS011;65265;53.200;6.080;2022-12-18T21:19:27;16.65;;;8.18;;
76433;SDS011;65265;53.200;6.080;2022-12-18T21:24:18;18.23;;;8.60;;
76433;SDS011;65265;53.200;6.080;2022-12-18T21:29:11;20.20;;;8.43;;
76433;SDS011;65265;53.200;6.080;2022-12-18T21:34:05;21.08;;;11.05;;
76433;SDS011;65265;53.200;6.080;2022-12-18T21:38:58;17.35;;;8.25;;
76433;SDS011;65265;53.200;6.080;2022-12-18T21:43:50;18.75;;;8.98;;
76433;SDS011;65265;53.200;6.080;2022-12-18T21:48:55;20.67;;;9.30;;
76433;SDS011;65265;53.200;6.080;2022-12-18T21:53:48;15.88;;;9.32;;
76433;SDS011;65265;53.200;6.080;2022-12-18T21:58:40;20.67;;;10.75;;
76433;SDS011;65265;53.200;6.080;2022-12-18T22:03:32;20.30;;;12.02;;
76433;SDS011;65265;53.200;6.080;2022-12-18T22:08:23;17.95;;;8.82;;
76433;SDS011;65265;53.200;6.080;2022-12-18T22:13:16;22.00;;;11.30;;
76433;SDS011;65265;53.200;6.080;2022-12-18T22:18:08;23.55;;;10.60;;
76433;SDS011;65265;53.200;6.080;2022-12-18T22:23:01;20.23;;;10.05;;
76433;SDS011;65265;53.200;6.080;2022-12-18T22:27:52;20.90;;;12.05;;
76433;SDS011;65265;53.200;6.080;2022-12-18T22:33:03;23.48;;;11.55;;
76433;SDS011;65265;53.200;6.080;2022-12-18T22:37:56;24.85;;;10.85;;
76433;SDS011;65265;53.200;6.080;2022-12-18T22:42:48;20.27;;;10.60;;
76433;SDS011;65265;53.200;6.080;2022-12-18T22:47:39;21.50;;;10.23;;
76433;SDS011;65265;53.200;6.080;2022-12-18T22:52:33;19.58;;;10.93;;
76433;SDS011;65265;53.200;6.080;2022-12-18T22:57:24;24.05;;;11.70;;
76433;SDS011;65265;53.200;6.080;2022-12-18T23:02:16;24.38;;;13.82;;
76433;SDS011;65265;53.200;6.080;2022-12-18T23:07:08;21.90;;;11.60;;
76433;SDS011;65265;53.200;6.080;2022-12-18T23:12:01;22.50;;;11.90;;
76433;SDS011;65265;53.200;6.080;2022-12-18T23:16:53;24.20;;;12.68;;
76433;SDS011;65265;53.200;6.080;2022-12-18T23:21:45;24.40;;;12.02;;
76433;SDS011;65265;53.200;6.080;2022-12-18T23:26:36;22.25;;;13.00;;
76433;SDS011;65265;53.200;6.080;2022-12-18T23:31:30;20.83;;;11.00;;
76433;SDS011;65265;53.200;6.080;2022-12-18T23:36:23;27.63;;;13.05;;
76433;SDS011;65265;53.200;6.080;2022-12-18T23:41:15;25.83;;;12.48;;
76433;SDS011;65265;53.200;6.080;2022-12-18T23:46:11;27.63;;;12.70;;
76433;SDS011;65265;53.200;6.080;2022-12-18T23:51:06;23.20;;;11.65;;
76433;SDS011;65265;53.200;6.080;2022-12-18T23:55:58;27.35;;;15.00;;
